sensor_id;sensor_type;location;lat;lon;timestamp;P1;durP1;ratioP1;P2;durP2;ratioP2
9304;SDS011;4690;52.422;13.486;2023-11-18T00:11:54;7.13;;;6.43;;
9304;SDS011;4690;52.422;13.486;2023-11-18T00:14:20;7.53;;;6.83;;
9304;SDS011;4690;52.422;13.486;2023-11-18T00:16:46;7.77;;;6.97;;
9304;SDS011;4690;52.422;13.486;2023-11-18T00:19:12;8.07;;;7.37;;
9304;SDS011;4690;52.422;13.486;2023-11-18T00:21:38;7.87;;;6.97;;
9304;SDS011;4690;52.422;13.486;2023-11-18T00:24:04;7.00;;;6.40;;
9304;SDS011;4690;52.422;13.486;2023-11-18T00:26:30;7.60;;;6.90;;
9304;SDS011;4690;52.422;13.486;2023-11-18T00:28:56;7.50;;;6.80;;
9304;SDS011;4690;52.422;13.486;2023-11-18T00:31:21;7.80;;;7.10;;
9304;SDS011;4690;52.422;13.486;2023-11-18T00:33:47;7.57;;;6.97;;
9304;SDS011;4690;52.422;13.486;2023-11-18T00:36:13;7.97;;;7.27;;
9304;SDS011;4690;52.422;13.486;2023-11-18T00:38:38;7.70;;;7.00;;
9304;SDS011;4690;52.422;13.486;2023-11-18T00:41:05;7.40;;;6.80;;
9304;SDS011;4690;52.422;13.486;2023-11-18T00:43:32;7.93;;;7.23;;
9304;SDS011;4690;52.422;13.486;2023-11-18T00:45:57;7.97;;;7.17;;
9304;SDS011;4690;52.422;13.486;2023-11-18T00:48:24;7.90;;;7.20;;
9304;SDS011;4690;52.422;13.486;2023-11-18T00:50:50;7.43;;;6.83;;
9304;SDS011;4690;52.422;13.486;2023-11-18T00:53:17;8.13;;;6.90;;
9304;SDS011;4690;52.422;13.486;2023-11-18T00:55:43;7.13;;;6.43;;
9304;SDS011;4690;52.422;13.486;2023-11-18T00:58:10;7.80;;;7.03;;
9304;SDS011;4690;52.422;13.486;2023-11-18T01:00:36;7.17;;;6.50;;
9304;SDS011;4690;52.422;13.486;2023-11-18T01:03:01;7.90;;;7.20;;
9304;SDS011;4690;52.422;13.486;2023-11-18T01:05:28;7.90;;;7.10;;
9304;SDS011;4690;52.422;13.486;2023-11-18T01:07:56;7.40;;;6.80;;
9304;SDS011;4690;52.422;13.486;2023-11-18T01:10:22;7.30;;;6.70;;
9304;SDS011;4690;52.422;13.486;2023-11-18T01:12:48;7.53;;;6.83;;
9304;SDS011;4690;52.422;13.486;2023-11-18T01:15:14;7.43;;;6.80;;
9304;SDS011;4690;52.422;13.486;2023-11-18T01:17:40;7.80;;;7.10;;
9304;SDS011;4690;52.422;13.486;2023-11-18T01:20:06;7.33;;;6.63;;
9304;SDS011;4690;52.422;13.486;2023-11-18T01:22:36;7.43;;;6.80;;
9304;SDS011;4690;52.422;13.486;2023-11-18T01:25:03;7.20;;;6.57;;
9304;SDS011;4690;52.422;13.486;2023-11-18T01:27:31;6.97;;;6.37;;
9304;SDS011;4690;52.422;13.486;2023-11-18T01:29:58;7.20;;;6.60;;
9304;SDS011;4690;52.422;13.486;2023-11-18T01:32:25;6.80;;;6.20;;
9304;SDS011;4690;52.422;13.486;2023-11-18T01:34:51;6.47;;;5.93;;
9304;SDS011;4690;52.422;13.486;2023-11-18T01:37:18;7.37;;;6.63;;
9304;SDS011;4690;52.422;13.486;2023-11-18T01:39:46;7.27;;;6.67;;
9304;SDS011;4690;52.422;13.486;2023-11-18T01:42:12;7.57;;;6.87;;
9304;SDS011;4690;52.422;13.486;2023-11-18T01:44:37;7.00;;;6.40;;
9304;SDS011;4690;52.422;13.486;2023-11-18T01:47:03;7.17;;;6.47;;
9304;SDS011;4690;52.422;13.486;2023-11-18T01:49:35;6.57;;;5.97;;
9304;SDS011;4690;52.422;13.486;2023-11-18T01:52:05;6.90;;;6.30;;
9304;SDS011;4690;52.422;13.486;2023-11-18T01:54:38;6.67;;;6.07;;
9304;SDS011;4690;52.422;13.486;2023-11-18T01:57:05;7.20;;;6.50;;
9304;SDS011;4690;52.422;13.486;2023-11-18T01:59:34;7.10;;;6.50;;
9304;SDS011;4690;52.422;13.486;2023-11-18T02:02:02;6.87;;;6.37;;
9304;SDS011;4690;52.422;13.486;2023-11-18T02:04:30;7.60;;;6.80;;
9304;SDS011;4690;52.422;13.486;2023-11-18T02:06:56;6.70;;;6.20;;
9304;SDS011;4690;52.422;13.486;2023-11-18T02:09:23;7.57;;;6.90;;
9304;SDS011;4690;52.422;13.486;2023-11-18T02:14:51;7.60;;;6.90;;
9304;SDS011;4690;52.422;13.486;2023-11-18T02:17:22;6.50;;;6.00;;
9304;SDS011;4690;52.422;13.486;2023-11-18T02:19:52;7.43;;;6.73;;
9304;SDS011;4690;52.422;13.486;2023-11-18T02:22:22;7.90;;;7.10;;
9304;SDS011;4690;52.422;13.486;2023-11-18T02:24:49;7.63;;;6.97;;
9304;SDS011;4690;52.422;13.486;2023-11-18T02:27:15;7.33;;;6.67;;
9304;SDS011;4690;52.422;13.486;2023-11-18T02:29:43;7.23;;;6.63;;
9304;SDS011;4690;52.422;13.486;2023-11-18T02:34:47;7.73;;;7.03;;
9304;SDS011;4690;52.422;13.486;2023-11-18T02:37:27;7.43;;;6.83;;
9304;SDS011;4690;52.422;13.486;2023-11-18T02:40:00;7.60;;;6.90;;
9304;SDS011;4690;52.422;13.486;2023-11-18T02:42:34;7.43;;;6.77;;
9304;SDS011;4690;52.422;13.486;2023-11-18T02:45:04;7.50;;;6.80;;
9304;SDS011;4690;52.422;13.486;2023-11-18T02:47:35;7.50;;;6.90;;
9304;SDS011;4690;52.422;13.486;2023-11-18T02:50:01;7.40;;;6.80;;
9304;SDS011;4690;52.422;13.486;2023-11-18T02:52:31;7.73;;;6.97;;
9304;SDS011;4690;52.422;13.486;2023-11-18T02:54:58;7.20;;;6.60;;
9304;SDS011;4690;52.422;13.486;2023-11-18T02:57:24;7.77;;;7.07;;
9304;SDS011;4690;52.422;13.486;2023-11-18T02:59:49;7.80;;;7.00;;
9304;SDS011;4690;52.422;13.486;2023-11-18T03:02:15;7.57;;;6.53;;
9304;SDS011;4690;52.422;13.486;2023-11-18T03:04:41;7.83;;;7.07;;
9304;SDS011;4690;52.422;13.486;2023-11-18T03:07:09;8.00;;;7.20;;
9304;SDS011;4690;52.422;13.486;2023-11-18T03:09:35;7.20;;;6.60;;
9304;SDS011;4690;52.422;13.486;2023-11-18T03:12:04;7.37;;;6.77;;
9304;SDS011;4690;52.422;13.486;2023-11-18T03:14:33;6.70;;;6.20;;
9304;SDS011;4690;52.422;13.486;2023-11-18T03:16:59;7.57;;;6.93;;
9304;SDS011;4690;52.422;13.486;2023-11-18T03:19:26;7.57;;;6.83;;
9304;SDS011;4690;52.422;13.486;2023-11-18T03:21:52;7.03;;;6.43;;
9304;SDS011;4690;52.422;13.486;2023-11-18T03:24:18;7.30;;;6.70;;
9304;SDS011;4690;52.422;13.486;2023-11-18T03:26:44;7.40;;;6.70;;
9304;SDS011;4690;52.422;13.486;2023-11-18T03:29:10;7.53;;;6.33;;
9304;SDS011;4690;52.422;13.486;2023-11-18T03:31:38;7.40;;;6.80;;
9304;SDS011;4690;52.422;13.486;2023-11-18T03:34:04;7.70;;;7.00;;
9304;SDS011;4690;52.422;13.486;2023-11-18T03:36:29;6.80;;;6.20;;
9304;SDS011;4690;52.422;13.486;2023-11-18T03:38:55;7.17;;;6.57;;
9304;SDS011;4690;52.422;13.486;2023-11-18T03:41:21;6.97;;;6.37;;
9304;SDS011;4690;52.422;13.486;2023-11-18T03:43:49;6.97;;;6.37;;
9304;SDS011;4690;52.422;13.486;2023-11-18T03:46:14;6.67;;;6.07;;
9304;SDS011;4690;52.422;13.486;2023-11-18T03:48:40;7.13;;;6.40;;
9304;SDS011;4690;52.422;13.486;2023-11-18T03:51:09;7.10;;;6.40;;
9304;SDS011;4690;52.422;13.486;2023-11-18T03:53:35;7.43;;;6.73;;
9304;SDS011;4690;52.422;13.486;2023-11-18T03:56:01;7.20;;;6.50;;
9304;SDS011;4690;52.422;13.486;2023-11-18T03:58:27;7.50;;;6.80;;
9304;SDS011;4690;52.422;13.486;2023-11-18T04:00:53;6.53;;;5.90;;
9304;SDS011;4690;52.422;13.486;2023-11-18T04:03:19;6.40;;;5.80;;
9304;SDS011;4690;52.422;13.486;2023-11-18T04:05:45;5.90;;;5.40;;
9304;SDS011;4690;52.422;13.486;2023-11-18T04:08:12;9.50;;;6.33;;
9304;SDS011;4690;52.422;13.486;2023-11-18T04:10:38;6.90;;;6.20;;
9304;SDS011;4690;52.422;13.486;2023-11-18T04:13:03;8.50;;;6.27;;
9304;SDS011;4690;52.422;13.486;2023-11-18T04:15:29;6.93;;;6.30;;
9304;SDS011;4690;52.422;13.486;2023-11-18T04:17:55;11.27;;;5.83;;
9304;SDS011;4690;52.422;13.486;2023-11-18T04:20:20;6.50;;;5.90;;
9304;SDS011;4690;52.422;13.486;2023-11-18T04:22:47;6.47;;;5.93;;
9304;SDS011;4690;52.422;13.486;2023-11-18T04:25:13;6.60;;;5.90;;
9304;SDS011;4690;52.422;13.486;2023-11-18T04:27:40;6.93;;;6.27;;
9304;SDS011;4690;52.422;13.486;2023-11-18T04:30:06;6.50;;;5.83;;
9304;SDS011;4690;52.422;13.486;2023-11-18T04:32:33;6.30;;;5.70;;
9304;SDS011;4690;52.422;13.486;2023-11-18T04:35:00;7.07;;;6.17;;
9304;SDS011;4690;52.422;13.486;2023-11-18T04:37:34;6.63;;;6.03;;
9304;SDS011;4690;52.422;13.486;2023-11-18T04:40:01;6.13;;;5.63;;
9304;SDS011;4690;52.422;13.486;2023-11-18T04:42:28;6.90;;;6.20;;
9304;SDS011;4690;52.422;13.486;2023-11-18T04:44:55;7.03;;;6.33;;
9304;SDS011;4690;52.422;13.486;2023-11-18T04:47:22;6.17;;;5.67;;
9304;SDS011;4690;52.422;13.486;2023-11-18T04:49:50;5.90;;;5.40;;
9304;SDS011;4690;52.422;13.486;2023-11-18T04:52:16;6.93;;;6.20;;
9304;SDS011;4690;52.422;13.486;2023-11-18T04:54:42;6.97;;;6.27;;
9304;SDS011;4690;52.422;13.486;2023-11-18T04:57:08;6.30;;;5.70;;
9304;SDS011;4690;52.422;13.486;2023-11-18T04:59:35;7.10;;;6.40;;
9304;SDS011;4690;52.422;13.486;2023-11-18T05:02:01;7.60;;;6.80;;
9304;SDS011;4690;52.422;13.486;2023-11-18T05:04:27;6.97;;;6.37;;
9304;SDS011;4690;52.422;13.486;2023-11-18T05:06:53;7.83;;;7.13;;
9304;SDS011;4690;52.422;13.486;2023-11-18T05:09:19;8.67;;;7.77;;
9304;SDS011;4690;52.422;13.486;2023-11-18T05:11:45;8.47;;;7.77;;
9304;SDS011;4690;52.422;13.486;2023-11-18T05:14:11;7.50;;;6.90;;
9304;SDS011;4690;52.422;13.486;2023-11-18T05:16:37;10.17;;;7.57;;
9304;SDS011;4690;52.422;13.486;2023-11-18T05:19:04;7.73;;;7.03;;
9304;SDS011;4690;52.422;13.486;2023-11-18T05:21:30;8.00;;;7.30;;
9304;SDS011;4690;52.422;13.486;2023-11-18T05:23:56;8.67;;;7.87;;
9304;SDS011;4690;52.422;13.486;2023-11-18T05:26:22;8.90;;;8.00;;
9304;SDS011;4690;52.422;13.486;2023-11-18T05:28:47;8.63;;;7.83;;
9304;SDS011;4690;52.422;13.486;2023-11-18T05:31:13;8.77;;;7.97;;
9304;SDS011;4690;52.422;13.486;2023-11-18T05:33:41;8.27;;;7.47;;
9304;SDS011;4690;52.422;13.486;2023-11-18T05:36:08;8.83;;;8.03;;
9304;SDS011;4690;52.422;13.486;2023-11-18T05:38:35;9.07;;;8.17;;
9304;SDS011;4690;52.422;13.486;2023-11-18T05:41:02;9.00;;;8.10;;
9304;SDS011;4690;52.422;13.486;2023-11-18T05:43:29;8.63;;;7.83;;
9304;SDS011;4690;52.422;13.486;2023-11-18T05:46:08;9.13;;;8.27;;
9304;SDS011;4690;52.422;13.486;2023-11-18T05:48:45;8.90;;;8.20;;
9304;SDS011;4690;52.422;13.486;2023-11-18T05:51:12;9.23;;;8.27;;
9304;SDS011;4690;52.422;13.486;2023-11-18T05:53:41;8.60;;;7.70;;
9304;SDS011;4690;52.422;13.486;2023-11-18T05:56:10;8.77;;;7.97;;
9304;SDS011;4690;52.422;13.486;2023-11-18T05:58:39;9.37;;;8.50;;
9304;SDS011;4690;52.422;13.486;2023-11-18T06:01:05;9.20;;;8.30;;
9304;SDS011;4690;52.422;13.486;2023-11-18T06:03:36;9.70;;;8.70;;
9304;SDS011;4690;52.422;13.486;2023-11-18T06:06:06;9.70;;;8.70;;
9304;SDS011;4690;52.422;13.486;2023-11-18T06:08:34;9.00;;;8.23;;
9304;SDS011;4690;52.422;13.486;2023-11-18T06:11:04;9.47;;;8.47;;
9304;SDS011;4690;52.422;13.486;2023-11-18T06:13:38;9.60;;;8.70;;
9304;SDS011;4690;52.422;13.486;2023-11-18T06:16:18;9.57;;;8.60;;
9304;SDS011;4690;52.422;13.486;2023-11-18T06:18:46;9.50;;;8.53;;
9304;SDS011;4690;52.422;13.486;2023-11-18T06:21:19;10.73;;;9.63;;
9304;SDS011;4690;52.422;13.486;2023-11-18T06:23:49;10.90;;;9.13;;
9304;SDS011;4690;52.422;13.486;2023-11-18T06:26:16;9.77;;;8.87;;
9304;SDS011;4690;52.422;13.486;2023-11-18T06:28:45;9.20;;;8.17;;
9304;SDS011;4690;52.422;13.486;2023-11-18T06:31:16;10.27;;;9.27;;
9304;SDS011;4690;52.422;13.486;2023-11-18T06:33:44;10.40;;;9.40;;
9304;SDS011;4690;52.422;13.486;2023-11-18T06:38:47;9.93;;;9.00;;
9304;SDS011;4690;52.422;13.486;2023-11-18T06:41:15;10.13;;;9.13;;
9304;SDS011;4690;52.422;13.486;2023-11-18T06:43:46;9.97;;;9.07;;
9304;SDS011;4690;52.422;13.486;2023-11-18T06:46:14;10.07;;;9.17;;
9304;SDS011;4690;52.422;13.486;2023-11-18T06:48:40;10.30;;;9.40;;
9304;SDS011;4690;52.422;13.486;2023-11-18T06:51:06;9.40;;;8.50;;
9304;SDS011;4690;52.422;13.486;2023-11-18T06:53:36;9.67;;;8.77;;
9304;SDS011;4690;52.422;13.486;2023-11-18T06:56:02;9.47;;;8.57;;
9304;SDS011;4690;52.422;13.486;2023-11-18T06:58:28;9.97;;;9.07;;
9304;SDS011;4690;52.422;13.486;2023-11-18T07:00:53;9.03;;;8.13;;
9304;SDS011;4690;52.422;13.486;2023-11-18T07:03:19;10.13;;;9.13;;
9304;SDS011;4690;52.422;13.486;2023-11-18T07:05:46;9.70;;;8.80;;
9304;SDS011;4690;52.422;13.486;2023-11-18T07:08:12;9.40;;;8.50;;
9304;SDS011;4690;52.422;13.486;2023-11-18T07:10:38;10.13;;;9.17;;
9304;SDS011;4690;52.422;13.486;2023-11-18T07:13:05;8.97;;;8.10;;
9304;SDS011;4690;52.422;13.486;2023-11-18T07:15:33;9.20;;;8.40;;
9304;SDS011;4690;52.422;13.486;2023-11-18T07:18:01;8.57;;;7.67;;
9304;SDS011;4690;52.422;13.486;2023-11-18T07:20:27;8.13;;;7.33;;
9304;SDS011;4690;52.422;13.486;2023-11-18T07:22:53;8.37;;;7.67;;
9304;SDS011;4690;52.422;13.486;2023-11-18T07:25:19;8.90;;;7.60;;
9304;SDS011;4690;52.422;13.486;2023-11-18T07:27:45;8.50;;;7.67;;
9304;SDS011;4690;52.422;13.486;2023-11-18T07:30:11;7.87;;;7.17;;
9304;SDS011;4690;52.422;13.486;2023-11-18T07:32:37;7.97;;;7.17;;
9304;SDS011;4690;52.422;13.486;2023-11-18T07:35:05;8.00;;;7.20;;
9304;SDS011;4690;52.422;13.486;2023-11-18T07:37:34;7.63;;;6.90;;
9304;SDS011;4690;52.422;13.486;2023-11-18T07:40:02;6.60;;;6.10;;
9304;SDS011;4690;52.422;13.486;2023-11-18T07:42:31;7.83;;;6.90;;
9304;SDS011;4690;52.422;13.486;2023-11-18T07:45:00;7.60;;;6.80;;
9304;SDS011;4690;52.422;13.486;2023-11-18T07:47:30;7.60;;;6.90;;
9304;SDS011;4690;52.422;13.486;2023-11-18T07:49:59;7.80;;;7.03;;
9304;SDS011;4690;52.422;13.486;2023-11-18T07:52:29;8.20;;;7.03;;
9304;SDS011;4690;52.422;13.486;2023-11-18T07:54:55;7.97;;;7.27;;
9304;SDS011;4690;52.422;13.486;2023-11-18T07:57:20;8.80;;;7.90;;
9304;SDS011;4690;52.422;13.486;2023-11-18T07:59:48;9.00;;;8.10;;
9304;SDS011;4690;52.422;13.486;2023-11-18T08:02:15;7.77;;;7.07;;
9304;SDS011;4690;52.422;13.486;2023-11-18T08:04:42;9.40;;;7.53;;
9304;SDS011;4690;52.422;13.486;2023-11-18T08:07:07;8.87;;;7.97;;
9304;SDS011;4690;52.422;13.486;2023-11-18T08:09:35;8.57;;;7.50;;
9304;SDS011;4690;52.422;13.486;2023-11-18T08:12:04;8.63;;;7.83;;
9304;SDS011;4690;52.422;13.486;2023-11-18T08:14:34;8.80;;;7.93;;
9304;SDS011;4690;52.422;13.486;2023-11-18T08:17:00;8.63;;;7.80;;
9304;SDS011;4690;52.422;13.486;2023-11-18T08:19:26;8.10;;;7.40;;
9304;SDS011;4690;52.422;13.486;2023-11-18T08:21:52;8.93;;;8.03;;
9304;SDS011;4690;52.422;13.486;2023-11-18T08:24:17;8.33;;;7.53;;
9304;SDS011;4690;52.422;13.486;2023-11-18T08:26:43;8.13;;;7.43;;
9304;SDS011;4690;52.422;13.486;2023-11-18T08:29:12;9.67;;;7.97;;
9304;SDS011;4690;52.422;13.486;2023-11-18T08:31:38;9.03;;;8.13;;
9304;SDS011;4690;52.422;13.486;2023-11-18T08:34:04;9.33;;;8.23;;
9304;SDS011;4690;52.422;13.486;2023-11-18T08:36:30;8.90;;;8.07;;
9304;SDS011;4690;52.422;13.486;2023-11-18T08:38:59;8.87;;;8.07;;
9304;SDS011;4690;52.422;13.486;2023-11-18T08:41:24;9.53;;;8.63;;
9304;SDS011;4690;52.422;13.486;2023-11-18T08:43:50;10.10;;;8.60;;
9304;SDS011;4690;52.422;13.486;2023-11-18T08:46:17;9.20;;;8.30;;
9304;SDS011;4690;52.422;13.486;2023-11-18T08:48:42;8.43;;;7.63;;
9304;SDS011;4690;52.422;13.486;2023-11-18T08:51:09;8.77;;;7.90;;
9304;SDS011;4690;52.422;13.486;2023-11-18T08:53:37;8.67;;;7.87;;
9304;SDS011;4690;52.422;13.486;2023-11-18T08:56:09;8.87;;;8.07;;
9304;SDS011;4690;52.422;13.486;2023-11-18T08:58:41;8.80;;;8.00;;
9304;SDS011;4690;52.422;13.486;2023-11-18T09:01:09;8.70;;;7.90;;
9304;SDS011;4690;52.422;13.486;2023-11-18T09:03:39;8.97;;;8.03;;
9304;SDS011;4690;52.422;13.486;2023-11-18T09:06:17;8.63;;;7.83;;
9304;SDS011;4690;52.422;13.486;2023-11-18T09:08:43;8.20;;;7.37;;
9304;SDS011;4690;52.422;13.486;2023-11-18T09:11:12;8.50;;;7.70;;
9304;SDS011;4690;52.422;13.486;2023-11-18T09:13:41;7.80;;;7.10;;
9304;SDS011;4690;52.422;13.486;2023-11-18T09:16:10;8.00;;;7.30;;
9304;SDS011;4690;52.422;13.486;2023-11-18T09:18:41;8.13;;;7.43;;
9304;SDS011;4690;52.422;13.486;2023-11-18T09:21:10;8.70;;;7.80;;
9304;SDS011;4690;52.422;13.486;2023-11-18T09:23:40;8.40;;;7.60;;
9304;SDS011;4690;52.422;13.486;2023-11-18T09:26:08;8.33;;;7.57;;
9304;SDS011;4690;52.422;13.486;2023-11-18T09:28:35;9.33;;;8.43;;
9304;SDS011;4690;52.422;13.486;2023-11-18T09:31:03;9.53;;;8.67;;
9304;SDS011;4690;52.422;13.486;2023-11-18T09:33:31;9.10;;;8.30;;
9304;SDS011;4690;52.422;13.486;2023-11-18T09:35:59;8.30;;;7.60;;
9304;SDS011;4690;52.422;13.486;2023-11-18T09:38:35;9.23;;;8.33;;
9304;SDS011;4690;52.422;13.486;2023-11-18T09:41:06;8.97;;;8.17;;
9304;SDS011;4690;52.422;13.486;2023-11-18T09:43:40;8.83;;;8.03;;
9304;SDS011;4690;52.422;13.486;2023-11-18T09:46:13;9.53;;;8.53;;
9304;SDS011;4690;52.422;13.486;2023-11-18T09:48:49;8.83;;;8.03;;
9304;SDS011;4690;52.422;13.486;2023-11-18T09:51:26;8.53;;;7.83;;
9304;SDS011;4690;52.422;13.486;2023-11-18T09:54:03;9.07;;;8.17;;
9304;SDS011;4690;52.422;13.486;2023-11-18T09:56:41;7.63;;;6.93;;
9304;SDS011;4690;52.422;13.486;2023-11-18T10:02:01;7.10;;;6.50;;
9304;SDS011;4690;52.422;13.486;2023-11-18T10:04:29;8.17;;;7.47;;
9304;SDS011;4690;52.422;13.486;2023-11-18T10:06:56;7.87;;;7.13;;
9304;SDS011;4690;52.422;13.486;2023-11-18T10:09:23;7.67;;;6.83;;
9304;SDS011;4690;52.422;13.486;2023-11-18T10:12:05;7.70;;;7.00;;
9304;SDS011;4690;52.422;13.486;2023-11-18T10:14:36;8.20;;;7.40;;
9304;SDS011;4690;52.422;13.486;2023-11-18T10:17:06;7.67;;;7.00;;
9304;SDS011;4690;52.422;13.486;2023-11-18T10:22:28;7.00;;;6.30;;
9304;SDS011;4690;52.422;13.486;2023-11-18T10:24:57;7.10;;;6.40;;
9304;SDS011;4690;52.422;13.486;2023-11-18T10:27:29;7.30;;;6.60;;
9304;SDS011;4690;52.422;13.486;2023-11-18T10:30:02;7.33;;;6.27;;
9304;SDS011;4690;52.422;13.486;2023-11-18T10:32:44;7.00;;;6.40;;
9304;SDS011;4690;52.422;13.486;2023-11-18T10:35:37;6.47;;;5.87;;
9304;SDS011;4690;52.422;13.486;2023-11-18T10:38:02;6.07;;;5.57;;
9304;SDS011;4690;52.422;13.486;2023-11-18T10:40:34;6.00;;;5.50;;
9304;SDS011;4690;52.422;13.486;2023-11-18T10:43:05;6.13;;;5.53;;
9304;SDS011;4690;52.422;13.486;2023-11-18T10:45:35;6.03;;;5.50;;
9304;SDS011;4690;52.422;13.486;2023-11-18T10:48:05;6.40;;;5.80;;
9304;SDS011;4690;52.422;13.486;2023-11-18T10:50:31;6.50;;;5.90;;
9304;SDS011;4690;52.422;13.486;2023-11-18T10:52:59;6.63;;;6.03;;
9304;SDS011;4690;52.422;13.486;2023-11-18T10:55:39;7.27;;;6.67;;
9304;SDS011;4690;52.422;13.486;2023-11-18T10:58:05;7.57;;;6.87;;
9304;SDS011;4690;52.422;13.486;2023-11-18T11:00:45;7.90;;;7.00;;
9304;SDS011;4690;52.422;13.486;2023-11-18T11:03:18;8.13;;;7.33;;
9304;SDS011;4690;52.422;13.486;2023-11-18T11:05:44;7.03;;;6.33;;
9304;SDS011;4690;52.422;13.486;2023-11-18T11:08:14;7.47;;;6.60;;
9304;SDS011;4690;52.422;13.486;2023-11-18T11:10:41;7.40;;;6.70;;
9304;SDS011;4690;52.422;13.486;2023-11-18T11:13:08;7.90;;;7.20;;
9304;SDS011;4690;52.422;13.486;2023-11-18T11:15:42;7.63;;;6.93;;
9304;SDS011;4690;52.422;13.486;2023-11-18T11:18:14;8.70;;;7.53;;
9304;SDS011;4690;52.422;13.486;2023-11-18T11:20:59;7.70;;;6.90;;
9304;SDS011;4690;52.422;13.486;2023-11-18T11:24:06;7.63;;;6.93;;
9304;SDS011;4690;52.422;13.486;2023-11-18T11:27:33;8.27;;;7.33;;
9304;SDS011;4690;52.422;13.486;2023-11-18T11:30:22;7.40;;;6.70;;
9304;SDS011;4690;52.422;13.486;2023-11-18T11:35:42;7.13;;;6.43;;
9304;SDS011;4690;52.422;13.486;2023-11-18T11:38:17;10.00;;;6.90;;
9304;SDS011;4690;52.422;13.486;2023-11-18T11:40:44;7.60;;;6.90;;
9304;SDS011;4690;52.422;13.486;2023-11-18T11:43:12;8.37;;;7.50;;
9304;SDS011;4690;52.422;13.486;2023-11-18T11:45:46;8.70;;;7.73;;
9304;SDS011;4690;52.422;13.486;2023-11-18T11:48:22;8.93;;;8.03;;
9304;SDS011;4690;52.422;13.486;2023-11-18T11:56:56;9.00;;;8.20;;
9304;SDS011;4690;52.422;13.486;2023-11-18T12:00:08;10.87;;;9.77;;
9304;SDS011;4690;52.422;13.486;2023-11-18T12:02:23;10.03;;;9.03;;
9304;SDS011;4690;52.422;13.486;2023-11-18T12:04:55;9.50;;;8.60;;
9304;SDS011;4690;52.422;13.486;2023-11-18T12:07:27;10.97;;;9.67;;
9304;SDS011;4690;52.422;13.486;2023-11-18T12:09:57;9.70;;;8.80;;
9304;SDS011;4690;52.422;13.486;2023-11-18T12:12:25;9.90;;;8.93;;
9304;SDS011;4690;52.422;13.486;2023-11-18T12:14:55;9.37;;;8.37;;
9304;SDS011;4690;52.422;13.486;2023-11-18T12:20:38;9.40;;;8.33;;
9304;SDS011;4690;52.422;13.486;2023-11-18T12:23:12;10.30;;;8.70;;
9304;SDS011;4690;52.422;13.486;2023-11-18T12:25:40;9.77;;;8.67;;
9304;SDS011;4690;52.422;13.486;2023-11-18T12:30:59;11.17;;;9.80;;
9304;SDS011;4690;52.422;13.486;2023-11-18T12:43:03;9.73;;;8.73;;
9304;SDS011;4690;52.422;13.486;2023-11-18T12:45:41;10.57;;;9.40;;
9304;SDS011;4690;52.422;13.486;2023-11-18T12:48:40;10.73;;;9.63;;
9304;SDS011;4690;52.422;13.486;2023-11-18T12:51:11;10.97;;;9.53;;
9304;SDS011;4690;52.422;13.486;2023-11-18T12:53:46;9.73;;;8.83;;
9304;SDS011;4690;52.422;13.486;2023-11-18T12:56:16;11.03;;;9.60;;
9304;SDS011;4690;52.422;13.486;2023-11-18T12:58:45;10.90;;;9.80;;
9304;SDS011;4690;52.422;13.486;2023-11-18T13:01:12;10.27;;;9.20;;
9304;SDS011;4690;52.422;13.486;2023-11-18T13:03:43;10.30;;;9.20;;
9304;SDS011;4690;52.422;13.486;2023-11-18T13:06:10;9.50;;;8.60;;
9304;SDS011;4690;52.422;13.486;2023-11-18T13:08:37;10.80;;;9.07;;
9304;SDS011;4690;52.422;13.486;2023-11-18T13:11:04;10.73;;;9.63;;
9304;SDS011;4690;52.422;13.486;2023-11-18T13:13:33;9.87;;;8.87;;
9304;SDS011;4690;52.422;13.486;2023-11-18T13:16:00;9.57;;;8.53;;
9304;SDS011;4690;52.422;13.486;2023-11-18T13:18:26;8.97;;;7.97;;
9304;SDS011;4690;52.422;13.486;2023-11-18T13:20:54;10.20;;;9.07;;
9304;SDS011;4690;52.422;13.486;2023-11-18T13:23:26;9.90;;;8.90;;
9304;SDS011;4690;52.422;13.486;2023-11-18T13:25:55;9.27;;;7.50;;
9304;SDS011;4690;52.422;13.486;2023-11-18T13:28:25;8.27;;;7.47;;
9304;SDS011;4690;52.422;13.486;2023-11-18T13:30:51;9.57;;;8.57;;
9304;SDS011;4690;52.422;13.486;2023-11-18T13:33:17;10.60;;;9.17;;
9304;SDS011;4690;52.422;13.486;2023-11-18T13:35:43;8.60;;;7.80;;
9304;SDS011;4690;52.422;13.486;2023-11-18T13:38:11;8.20;;;7.40;;
9304;SDS011;4690;52.422;13.486;2023-11-18T13:40:45;9.07;;;8.17;;
9304;SDS011;4690;52.422;13.486;2023-11-18T13:43:13;10.17;;;9.20;;
9304;SDS011;4690;52.422;13.486;2023-11-18T13:45:40;8.47;;;7.67;;
9304;SDS011;4690;52.422;13.486;2023-11-18T13:48:07;8.30;;;7.50;;
9304;SDS011;4690;52.422;13.486;2023-11-18T13:50:37;8.87;;;7.13;;
9304;SDS011;4690;52.422;13.486;2023-11-18T13:53:05;8.30;;;7.07;;
9304;SDS011;4690;52.422;13.486;2023-11-18T13:55:31;7.63;;;6.87;;
9304;SDS011;4690;52.422;13.486;2023-11-18T13:57:57;7.97;;;7.17;;
9304;SDS011;4690;52.422;13.486;2023-11-18T14:00:24;7.80;;;7.10;;
9304;SDS011;4690;52.422;13.486;2023-11-18T14:02:53;7.43;;;6.77;;
9304;SDS011;4690;52.422;13.486;2023-11-18T14:05:21;7.90;;;7.10;;
9304;SDS011;4690;52.422;13.486;2023-11-18T14:07:52;8.50;;;7.60;;
9304;SDS011;4690;52.422;13.486;2023-11-18T14:10:24;7.60;;;6.90;;
9304;SDS011;4690;52.422;13.486;2023-11-18T14:15:30;7.67;;;6.97;;
9304;SDS011;4690;52.422;13.486;2023-11-18T14:18:00;7.90;;;7.10;;
9304;SDS011;4690;52.422;13.486;2023-11-18T14:20:27;7.97;;;7.20;;
9304;SDS011;4690;52.422;13.486;2023-11-18T14:22:55;8.40;;;7.60;;
9304;SDS011;4690;52.422;13.486;2023-11-18T14:25:21;12.23;;;10.97;;
9304;SDS011;4690;52.422;13.486;2023-11-18T14:27:49;12.67;;;11.47;;
9304;SDS011;4690;52.422;13.486;2023-11-18T14:30:15;12.00;;;10.80;;
9304;SDS011;4690;52.422;13.486;2023-11-18T14:32:45;10.27;;;9.27;;
9304;SDS011;4690;52.422;13.486;2023-11-18T14:35:11;8.93;;;8.13;;
9304;SDS011;4690;52.422;13.486;2023-11-18T14:37:42;9.83;;;8.83;;
9304;SDS011;4690;52.422;13.486;2023-11-18T14:40:10;9.87;;;8.87;;
9304;SDS011;4690;52.422;13.486;2023-11-18T14:42:43;9.70;;;8.80;;
9304;SDS011;4690;52.422;13.486;2023-11-18T14:45:13;10.10;;;8.77;;
9304;SDS011;4690;52.422;13.486;2023-11-18T14:47:40;10.93;;;9.80;;
9304;SDS011;4690;52.422;13.486;2023-11-18T14:50:09;11.00;;;9.90;;
9304;SDS011;4690;52.422;13.486;2023-11-18T14:52:46;10.23;;;9.30;;
9304;SDS011;4690;52.422;13.486;2023-11-18T14:55:15;9.77;;;8.83;;
9304;SDS011;4690;52.422;13.486;2023-11-18T14:57:42;10.60;;;9.50;;
9304;SDS011;4690;52.422;13.486;2023-11-18T15:00:10;10.97;;;9.60;;
9304;SDS011;4690;52.422;13.486;2023-11-18T15:02:47;12.53;;;10.40;;
9304;SDS011;4690;52.422;13.486;2023-11-18T15:05:15;14.13;;;10.73;;
9304;SDS011;4690;52.422;13.486;2023-11-18T15:10:18;18.57;;;11.80;;
9304;SDS011;4690;52.422;13.486;2023-11-18T15:12:47;15.00;;;11.03;;
9304;SDS011;4690;52.422;13.486;2023-11-18T15:15:18;15.30;;;11.57;;
9304;SDS011;4690;52.422;13.486;2023-11-18T15:17:48;14.13;;;10.83;;
9304;SDS011;4690;52.422;13.486;2023-11-18T15:20:17;14.07;;;10.90;;
9304;SDS011;4690;52.422;13.486;2023-11-18T15:22:43;10.23;;;9.10;;
9304;SDS011;4690;52.422;13.486;2023-11-18T15:25:11;11.10;;;10.00;;
9304;SDS011;4690;52.422;13.486;2023-11-18T15:27:46;12.90;;;10.17;;
9304;SDS011;4690;52.422;13.486;2023-11-18T15:30:13;11.40;;;9.80;;
9304;SDS011;4690;52.422;13.486;2023-11-18T15:32:46;11.37;;;10.17;;
9304;SDS011;4690;52.422;13.486;2023-11-18T15:35:12;11.03;;;9.90;;
9304;SDS011;4690;52.422;13.486;2023-11-18T15:37:41;11.10;;;9.87;;
9304;SDS011;4690;52.422;13.486;2023-11-18T15:40:12;11.23;;;10.13;;
9304;SDS011;4690;52.422;13.486;2023-11-18T15:42:47;12.23;;;10.00;;
9304;SDS011;4690;52.422;13.486;2023-11-18T15:45:20;9.77;;;8.77;;
9304;SDS011;4690;52.422;13.486;2023-11-18T15:47:54;11.77;;;10.67;;
9304;SDS011;4690;52.422;13.486;2023-11-18T15:50:20;11.67;;;10.53;;
9304;SDS011;4690;52.422;13.486;2023-11-18T15:52:46;12.07;;;10.87;;
9304;SDS011;4690;52.422;13.486;2023-11-18T15:55:16;11.67;;;10.47;;
9304;SDS011;4690;52.422;13.486;2023-11-18T15:57:44;10.83;;;9.27;;
9304;SDS011;4690;52.422;13.486;2023-11-18T16:00:18;10.50;;;9.57;;
9304;SDS011;4690;52.422;13.486;2023-11-18T16:02:49;14.53;;;10.43;;